createdAt,value
2023-01-19T03:45:18.599Z,98475.81
2023-01-19T03:48:21.785Z,98488.53
2023-01-19T03:51:24.051Z,98499.84
2023-01-19T03:54:26.883Z,98503.16
2023-01-19T03:57:29.113Z,98505.09
2023-01-19T04:00:32.142Z,98501.09
2023-01-19T04:03:34.513Z,98524.06
2023-01-19T04:06:36.607Z,98537.03
2023-01-19T04:09:39.115Z,98544.66
2023-01-19T04:12:41.714Z,98526.56
2023-01-19T04:15:44.167Z,98549.62
2023-01-19T04:18:46.516Z,98550.50
2023-01-19T04:21:50.644Z,98555.50
2023-01-19T04:24:52.787Z,98551.94
2023-01-19T04:27:55.677Z,98538.84
2023-01-19T04:30:58.082Z,98541.22
2023-01-19T04:34:00.531Z,98535.31
2023-01-19T04:37:02.619Z,98528.91
2023-01-19T04:40:05.706Z,98531.59
2023-01-19T04:43:08.359Z,98522.87
2023-01-19T04:46:10.834Z,98519.50
2023-01-19T04:49:13.116Z,98520.94
2023-01-19T04:52:15.513Z,98513.22
2023-01-19T04:55:18.428Z,98508.72
2023-01-19T04:58:21.304Z,98539.34
2023-01-19T05:01:23.561Z,98538.72
2023-01-19T05:04:26.394Z,98545.72
2023-01-19T05:07:28.893Z,98556.25
2023-01-19T05:10:31.380Z,98563.19
2023-01-19T05:13:34.230Z,98560.44
2023-01-19T05:16:36.704Z,98545.78
2023-01-19T05:19:39.210Z,98543.66
2023-01-19T05:22:41.642Z,98576.22
2023-01-19T05:25:44.542Z,98582.69
2023-01-19T05:28:46.928Z,98589.09
2023-01-19T05:31:49.109Z,98593.63
2023-01-19T05:34:51.530Z,98588.53
2023-01-19T05:37:53.731Z,98578.09
2023-01-19T05:40:59.047Z,98589.09
2023-01-19T05:44:01.168Z,98581.31
2023-01-19T05:47:03.596Z,98578.63
2023-01-19T05:50:06.352Z,98574.91
2023-01-19T05:53:08.869Z,98571.03
2023-01-19T05:56:11.746Z,98573.94
2023-01-19T05:59:15.235Z,98571.53
2023-01-19T06:02:18.523Z,98534.28
2023-01-19T06:05:22.288Z,98532.84
2023-01-19T06:08:25.450Z,98543.47
2023-01-19T06:11:32.204Z,98549.75
2023-01-19T06:14:36.882Z,98546.03
2023-01-19T06:17:39.277Z,98525.00
2023-01-19T06:20:41.391Z,98532.72
2023-01-19T06:23:43.883Z,98544.00
2023-01-19T06:26:46.105Z,98518.97
2023-01-19T06:29:48.575Z,98512.69
2023-01-19T06:32:50.785Z,98508.78
2023-01-19T06:35:53.502Z,98533.03
2023-01-19T06:38:55.609Z,98545.00
2023-01-19T06:41:58.012Z,98557.78
2023-01-19T06:45:00.344Z,98564.06
2023-01-19T06:48:03.672Z,98579.66
2023-01-19T06:51:06.863Z,98570.44
2023-01-19T06:54:09.512Z,98564.31
2023-01-19T06:57:12.018Z,98557.47
2023-01-19T07:00:15.034Z,98567.78
2023-01-19T07:03:23.550Z,98563.94
2023-01-19T07:06:26.461Z,98557.50
2023-01-19T07:09:28.716Z,98551.41
2023-01-19T07:12:31.331Z,98553.19
2023-01-19T07:15:33.516Z,98541.84
2023-01-19T07:18:37.488Z,98537.63
2023-01-19T07:21:39.898Z,98554.44
2023-01-19T07:24:42.624Z,98583.03
2023-01-19T07:27:45.102Z,98586.09
2023-01-19T07:30:51.539Z,98587.22
2023-01-19T07:33:53.853Z,98583.06
2023-01-19T07:36:56.839Z,98570.13
2023-01-19T07:39:58.987Z,98572.56
2023-01-19T07:43:01.869Z,98580.75
2023-01-19T07:46:05.948Z,98581.72
2023-01-19T07:49:08.586Z,98586.62
2023-01-19T07:52:10.920Z,98586.97
2023-01-19T07:55:13.322Z,98590.53
2023-01-19T07:58:15.712Z,98597.13
2023-01-19T08:01:18.818Z,98606.75
2023-01-19T08:04:21.379Z,98605.06
2023-01-19T08:07:23.592Z,98610.72
2023-01-19T08:10:27.534Z,98593.22
2023-01-19T08:13:29.729Z,98587.66
2023-01-19T08:16:32.274Z,98594.66
2023-01-19T08:19:34.371Z,98581.84
2023-01-19T08:22:37.198Z,98576.28
2023-01-19T08:25:45.213Z,98578.00
2023-01-19T08:28:47.700Z,98569.75
2023-01-19T08:31:50.181Z,98579.28
2023-01-19T08:34:52.692Z,98587.47
2023-01-19T08:37:55.971Z,98590.00
2023-01-19T08:40:58.517Z,98581.84
2023-01-19T08:44:01.063Z,98595.31
2023-01-19T08:47:03.599Z,98594.28
2023-01-19T08:50:06.300Z,98598.03
2023-01-19T08:53:10.135Z,98598.91
2023-01-19T08:56:13.690Z,98606.50
2023-01-19T08:59:16.901Z,98597.38
2023-01-19T09:02:19.045Z,98593.94
2023-01-19T09:05:21.626Z,98595.22
2023-01-19T09:08:23.737Z,98596.09
2023-01-19T09:11:27.404Z,98594.34
2023-01-19T09:14:29.681Z,98583.87
2023-01-19T09:17:32.126Z,98589.03
2023-01-19T09:20:36.115Z,98595.78
2023-01-19T09:23:38.639Z,98621.34
2023-01-19T09:26:40.810Z,98606.25
2023-01-19T09:29:50.188Z,98606.50
2023-01-19T09:32:52.287Z,98598.63
2023-01-19T09:35:54.974Z,98601.50
2023-01-19T09:38:57.078Z,98610.69
2023-01-19T09:42:14.716Z,98614.37
2023-01-19T09:45:22.803Z,98608.41
2023-01-19T09:48:47.422Z,98602.00
2023-01-19T09:51:51.238Z,98603.91
2023-01-19T09:54:58.410Z,98615.41
2023-01-19T09:58:01.091Z,98614.78
2023-01-19T10:01:21.930Z,98620.97
2023-01-19T10:04:31.316Z,98621.34
2023-01-19T10:07:53.272Z,98616.59
2023-01-19T10:10:58.074Z,98624.22
2023-01-19T10:14:00.705Z,98622.03
2023-01-19T10:17:12.672Z,98632.31
2023-01-19T10:20:28.496Z,98637.53
2023-01-19T10:23:40.227Z,98635.63
2023-01-19T10:26:49.675Z,98637.09
2023-01-19T10:29:52.329Z,98634.22
2023-01-19T10:32:55.019Z,98632.88
2023-01-19T10:35:57.479Z,98643.53
2023-01-19T10:38:59.943Z,98644.06
2023-01-19T10:42:03.674Z,98644.59
2023-01-19T10:45:21.114Z,98655.69
2023-01-19T10:48:23.986Z,98659.84
2023-01-19T10:51:26.420Z,98653.28
2023-01-19T10:54:31.341Z,98658.91
2023-01-19T10:57:43.313Z,98656.31
2023-01-19T11:00:45.784Z,98658.44
2023-01-19T11:03:48.615Z,98662.53
2023-01-19T11:06:51.142Z,98662.88
2023-01-19T11:10:20.839Z,98664.75
2023-01-19T11:13:23.285Z,98659.53
2023-01-19T11:16:28.992Z,98652.31
2023-01-19T11:19:33.318Z,98655.59
2023-01-19T11:22:36.058Z,98644.63
2023-01-19T11:25:38.740Z,98645.59
2023-01-19T11:28:46.175Z,98649.84
2023-01-19T11:31:50.537Z,98638.38
2023-01-19T11:34:52.779Z,98643.44
2023-01-19T11:38:07.230Z,98655.69
2023-01-19T11:41:18.810Z,98661.19
2023-01-19T11:44:33.593Z,98655.72
2023-01-19T11:47:43.231Z,98654.56
2023-01-19T11:50:47.256Z,98651.00
2023-01-19T11:53:52.808Z,98650.50
2023-01-19T11:56:59.020Z,98653.19
2023-01-19T12:00:05.130Z,98658.28
2023-01-19T12:03:16.200Z,98668.41
2023-01-19T12:06:27.626Z,98668.44
2023-01-19T12:09:35.066Z,98669.13
2023-01-19T12:12:40.469Z,98681.28
2023-01-19T12:15:44.499Z,98684.91
2023-01-19T12:18:52.647Z,98691.19
2023-01-19T12:21:56.115Z,98691.56
2023-01-19T12:25:31.692Z,98690.41
2023-01-19T12:28:37.784Z,98698.84
2023-01-19T12:31:42.856Z,98708.13
2023-01-19T12:34:46.773Z,98709.78
2023-01-19T12:37:49.626Z,98716.38
2023-01-19T12:41:17.312Z,98718.06
2023-01-19T12:44:24.025Z,98724.62
2023-01-19T12:47:27.154Z,98728.19
2023-01-19T12:50:37.790Z,98730.78
2023-01-19T12:53:40.103Z,98734.59
2023-01-19T12:56:42.506Z,98736.34
2023-01-19T12:59:45.367Z,98733.63
2023-01-19T13:02:52.294Z,98741.50
2023-01-19T13:05:55.979Z,98740.47
2023-01-19T13:09:00.403Z,98755.38
2023-01-19T13:12:14.576Z,98767.16
2023-01-19T13:15:35.620Z,98774.13
2023-01-19T13:18:41.519Z,98781.97
2023-01-19T13:21:49.774Z,98782.41
2023-01-19T13:25:09.166Z,98792.16
2023-01-19T13:28:16.054Z,98803.75
2023-01-19T13:31:19.005Z,98809.16
2023-01-19T13:34:25.203Z,98812.63
2023-01-19T13:37:35.627Z,98806.66
2023-01-19T13:40:38.973Z,98817.50
2023-01-19T13:43:42.282Z,98828.69
2023-01-19T13:46:46.095Z,98840.94
2023-01-19T13:49:55.536Z,98841.28
2023-01-19T13:52:59.239Z,98848.22
2023-01-19T13:56:21.826Z,98849.09
2023-01-19T13:59:24.296Z,98859.84
2023-01-19T14:02:26.600Z,98862.31
2023-01-19T14:05:35.849Z,98860.59
2023-01-19T14:08:38.037Z,98867.72
2023-01-19T14:11:40.442Z,98867.00
2023-01-19T14:14:43.937Z,98865.59
2023-01-19T14:18:12.019Z,98846.72
2023-01-19T14:21:18.563Z,98853.28
2023-01-19T14:24:20.915Z,98843.00
2023-01-19T14:27:24.620Z,98846.91
2023-01-19T14:30:27.933Z,98864.38
2023-01-19T14:33:41.903Z,98865.91
2023-01-19T14:36:44.388Z,98873.03
2023-01-19T14:39:49.928Z,98872.69
2023-01-19T14:42:55.552Z,98869.75
2023-01-19T14:45:57.851Z,98875.31
2023-01-19T14:49:04.363Z,98876.66
2023-01-19T14:52:28.495Z,98900.59
2023-01-19T14:55:40.116Z,98905.97
2023-01-19T14:58:42.272Z,98924.66
2023-01-19T15:01:44.902Z,98927.13
2023-01-19T15:04:55.153Z,98947.63
2023-01-19T15:07:57.731Z,98965.00
2023-01-19T15:11:12.669Z,98977.06
2023-01-19T15:14:16.865Z,98975.47
2023-01-19T15:17:25.575Z,98976.34
2023-01-19T15:20:28.777Z,98958.97
2023-01-19T15:23:32.045Z,98955.91
2023-01-19T15:26:35.848Z,98948.63
2023-01-19T15:29:40.227Z,98949.53
2023-01-19T15:32:43.900Z,98959.66
2023-01-19T15:35:46.037Z,98964.50
2023-01-19T15:38:51.357Z,98978.53
2023-01-19T15:41:53.535Z,98996.03
2023-01-19T15:44:55.970Z,98989.91
2023-01-19T15:47:58.247Z,98991.19
2023-01-19T15:51:00.656Z,99000.50
2023-01-19T15:54:02.796Z,98997.03
2023-01-19T15:57:05.798Z,99004.16
2023-01-19T16:00:09.108Z,99019.31
2023-01-19T16:03:12.055Z,99024.84
2023-01-19T16:06:16.203Z,99045.91
2023-01-19T16:09:20.071Z,99034.25
2023-01-19T16:12:22.506Z,99041.53
2023-01-19T16:15:25.335Z,99045.50
2023-01-19T16:18:27.767Z,99053.91
2023-01-19T16:21:29.924Z,99076.84
